Main page
METAR-TAF:

METAR-TAF

Airports :

Campo dos Bugres Airport

Caxias do Sul, Rio Grande do Sul, Brazil

latitude: 29-11-44S, longitude: 051-11-23W, elevation: 754 m

Current weather observation

The report was made 7 hours and 35 minutes ago, at 00:00 UTC
Wind 4 kt from the East
Temperature 15°C
Humidity 94%
Pressure 1016 hPa
Visibility: 8000 m

METAR: SBCX 190000Z 10004KT 8000 NSC 15/14 Q1016

Time: 04:35 (07:35 UTC)


TAF: missing

Weather observations and forecasts of more than 4000 airports (METAR and TAF reports).

The available stations are represented by yellow and red dots on the map.

Hover mouse over dot to see the name of the station.

Then click to see weather observations and forecasts.

To change the map : click on the green buttons with a black cross to zoom in, on the green button with a dash to zoom out, or on the green arrows for adjacent maps.


METAR-TAF: